Time;durP1;ratioP1;P1;durP2;ratioP2;P2;SDS_P1;SDS_P2;PMS_P1;PMS_P2;Temp;Humidity;BMP_temperature;BMP_pressure;BME280_temperature;BME280_humidity;BME280_pressure;Samples;Min_cycle;Max_cycle;Signal;HPM_P1;HPM_P2
2023/08/31 00:01:57;;;;;;;5.67;3.20;;;;;;;16.75;100.00;97609.00;4131178;28;20666;-85
2023/08/31 00:04:01;;;;;;;5.60;3.53;;;;;;;16.72;100.00;97612.78;4129027;28;20673;-85
2023/08/31 00:06:07;;;;;;;4.57;3.03;;;;;;;16.72;100.00;97609.31;4133495;28;20629;-85
2023/08/31 00:08:11;;;;;;;4.33;3.20;;;;;;;16.70;100.00;97603.34;4129761;28;20634;-85
2023/08/31 00:10:17;;;;;;;3.73;3.27;;;;;;;16.69;100.00;97601.72;4118716;28;20650;-85
2023/08/31 00:12:20;;;;;;;3.80;3.00;;;;;;;16.70;100.00;97604.22;4132465;28;20736;-85
2023/08/31 00:14:23;;;;;;;6.00;3.33;;;;;;;16.71;100.00;97600.56;4132633;28;21504;-85
2023/08/31 00:16:26;;;;;;;3.30;2.90;;;;;;;16.73;100.00;97598.63;4134405;28;21059;-85
2023/08/31 00:18:29;;;;;;;4.00;3.17;;;;;;;16.74;100.00;97597.63;4135189;28;21070;-85
2023/08/31 00:20:33;;;;;;;4.20;2.97;;;;;;;16.74;100.00;97602.09;4130583;28;20720;-85
2023/08/31 00:22:36;;;;;;;4.03;2.73;;;;;;;16.76;100.00;97603.56;4131654;28;20636;-85
2023/08/31 00:24:40;;;;;;;3.40;2.57;;;;;;;16.76;100.00;97613.28;4133600;28;20634;-85
2023/08/31 00:26:43;;;;;;;6.70;3.10;;;;;;;16.75;100.00;97607.19;4120428;28;20654;-85
2023/08/31 00:28:46;;;;;;;3.57;2.97;;;;;;;16.76;100.00;97597.47;4138262;28;20640;-85
2023/08/31 00:30:50;;;;;;;4.50;2.83;;;;;;;16.75;100.00;97591.38;4117044;28;20641;-85
2023/08/31 00:32:53;;;;;;;3.60;2.80;;;;;;;16.74;100.00;97591.53;4139156;28;20669;-85
2023/08/31 00:39:11;;;;;;;5.23;3.47;;;;;;;16.63;100.00;97602.34;4121667;28;20707;-88
2023/08/31 00:41:15;;;;;;;4.87;2.83;;;;;;;16.55;100.00;97599.63;4129836;28;20722;-88
2023/08/31 00:47:04;;;;;;;4.57;3.43;;;;;;;16.40;100.00;97609.03;4109108;28;20709;-87
2023/08/31 00:49:09;;;;;;;4.50;3.70;;;;;;;16.36;100.00;97612.16;4117638;28;20634;-88
2023/08/31 00:51:13;;;;;;;4.03;3.20;;;;;;;16.30;100.00;97612.75;4118853;28;20745;-88
2023/08/31 00:53:17;;;;;;;4.43;3.27;;;;;;;16.25;100.00;97618.47;4123592;28;20675;-88
2023/08/31 00:55:21;;;;;;;5.30;3.50;;;;;;;16.22;100.00;97616.16;4110285;28;20640;-87
2023/08/31 00:57:26;;;;;;;4.87;3.03;;;;;;;16.18;100.00;97620.03;4120278;28;20622;-88
2023/08/31 00:59:29;;;;;;;5.70;3.33;;;;;;;16.16;100.00;97627.25;4122032;28;21238;-88
2023/08/31 01:01:43;;;;;;;4.10;3.10;;;;;;;16.16;100.00;97619.34;4118680;28;20987;-88
2023/08/31 01:03:51;;;;;;;7.27;3.20;;;;;;;16.15;100.00;97619.50;4115033;28;20646;-88
2023/08/31 01:06:04;;;;;;;5.30;4.00;;;;;;;16.14;100.00;97625.72;4118225;28;20642;-88
2023/08/31 01:08:17;;;;;;;5.50;3.50;;;;;;;16.12;100.00;97627.69;4118000;28;20673;-88
2023/08/31 01:10:26;;;;;;;6.90;4.60;;;;;;;16.11;100.00;97634.75;4109357;28;21495;-87
2023/08/31 01:12:35;;;;;;;4.80;3.50;;;;;;;16.11;100.00;97636.56;4117226;28;21433;-89
2023/08/31 01:14:42;;;;;;;5.97;3.40;;;;;;;16.10;100.00;97629.63;4120489;28;20633;-88
2023/08/31 01:16:48;;;;;;;5.70;3.87;;;;;;;16.09;100.00;97625.34;4110056;28;20645;-88
2023/08/31 01:18:51;;;;;;;5.90;3.80;;;;;;;16.05;100.00;97611.66;4125189;28;20633;-88
2023/08/31 01:21:02;;;;;;;4.13;3.60;;;;;;;16.03;100.00;97607.53;4129715;28;20630;-88
2023/08/31 01:23:07;;;;;;;4.67;3.60;;;;;;;16.01;100.00;97617.38;4119505;28;20638;-88
2023/08/31 01:25:13;;;;;;;4.97;3.03;;;;;;;15.98;100.00;97615.03;4117834;28;20639;-89
2023/08/31 01:27:16;;;;;;;7.40;3.73;;;;;;;15.96;100.00;97611.72;4117588;28;20766;-87
2023/08/31 01:29:20;;;;;;;4.10;3.40;;;;;;;15.93;100.00;97609.41;4125197;28;20634;-88
2023/08/31 01:31:23;;;;;;;4.53;3.53;;;;;;;15.92;100.00;97609.53;4124973;28;20641;-88
2023/08/31 01:33:26;;;;;;;4.33;3.30;;;;;;;15.90;100.00;97604.44;4117423;28;20637;-88
2023/08/31 01:35:32;;;;;;;3.97;3.00;;;;;;;15.88;100.00;97608.22;4120340;28;20634;-88
2023/08/31 01:37:45;;;;;;;5.27;3.20;;;;;;;15.87;100.00;97606.53;4119915;28;20669;-89
2023/08/31 01:39:54;;;;;;;4.67;3.53;;;;;;;15.87;100.00;97612.63;4123240;28;21221;-87
2023/08/31 01:42:02;;;;;;;5.33;3.27;;;;;;;15.85;100.00;97613.78;4124761;28;20628;-88
2023/08/31 01:44:07;;;;;;;4.10;3.23;;;;;;;15.82;100.00;97624.59;4124591;28;20994;-85
2023/08/31 01:46:11;;;;;;;4.10;3.07;;;;;;;15.77;100.00;97622.41;4120104;28;20648;-85
2023/08/31 01:48:15;;;;;;;4.37;3.43;;;;;;;15.73;100.00;97620.22;4123153;28;20642;-85
2023/08/31 01:50:18;;;;;;;5.23;3.50;;;;;;;15.71;100.00;97628.25;4123569;28;20735;-85
2023/08/31 01:52:21;;;;;;;5.77;2.87;;;;;;;15.69;100.00;97632.00;4123301;28;20669;-85
2023/08/31 01:54:24;;;;;;;3.63;3.20;;;;;;;15.65;100.00;97634.09;4118241;28;21014;-85
2023/08/31 01:56:28;;;;;;;5.13;3.77;;;;;;;15.64;100.00;97642.13;4117925;28;20673;-85
2023/08/31 01:58:33;;;;;;;5.80;4.00;;;;;;;15.63;100.00;97640.47;4117965;28;20645;-85
2023/08/31 02:00:38;;;;;;;5.87;3.87;;;;;;;15.64;100.00;97640.31;4119776;28;20657;-85
2023/08/31 02:02:42;;;;;;;4.40;3.77;;;;;;;15.64;100.00;97642.94;4124072;28;20618;-85
2023/08/31 02:04:46;;;;;;;5.70;3.87;;;;;;;15.66;100.00;97646.25;4114805;28;20692;-85
2023/08/31 02:06:49;;;;;;;4.40;3.80;;;;;;;15.68;100.00;97646.94;4124526;28;20633;-85
2023/08/31 02:08:52;;;;;;;4.50;3.47;;;;;;;15.70;100.00;97650.25;4117287;28;21389;-85
2023/08/31 02:10:55;;;;;;;7.30;3.70;;;;;;;15.69;100.00;97653.84;4117920;28;20674;-85
2023/08/31 02:12:58;;;;;;;5.20;3.47;;;;;;;15.69;100.00;97653.03;4114029;28;20635;-85
2023/08/31 02:15:04;;;;;;;4.60;3.70;;;;;;;15.65;100.00;97649.88;4107914;28;20669;-85
2023/08/31 02:17:08;;;;;;;4.60;3.70;;;;;;;15.64;100.00;97652.63;4125144;28;20692;-85
2023/08/31 02:19:11;;;;;;;5.47;3.33;;;;;;;15.64;100.00;97655.28;4124516;28;20672;-85
2023/08/31 02:21:15;;;;;;;5.10;4.17;;;;;;;15.63;100.00;97661.50;4123117;28;20637;-85
2023/08/31 02:23:18;;;;;;;6.00;3.40;;;;;;;15.59;100.00;97660.13;4110768;28;20653;-85
2023/08/31 02:25:21;;;;;;;4.70;3.60;;;;;;;15.57;100.00;97662.94;4121648;28;20630;-85
2023/08/31 02:27:24;;;;;;;4.00;3.60;;;;;;;15.56;100.00;97650.75;4096642;28;20666;-85
2023/08/31 02:29:27;;;;;;;6.37;3.43;;;;;;;15.56;100.00;97655.19;4106471;28;20671;-85
2023/08/31 02:31:32;;;;;;;4.20;3.47;;;;;;;15.57;100.00;97651.56;4120159;28;20709;-85
2023/08/31 02:33:36;;;;;;;6.70;3.67;;;;;;;15.57;100.00;97647.16;4113724;28;21620;-85
2023/08/31 02:35:39;;;;;;;4.77;3.63;;;;;;;15.57;100.00;97652.41;4117668;28;20629;-85
2023/08/31 02:37:42;;;;;;;4.03;3.40;;;;;;;15.56;100.00;97657.81;4117477;28;20646;-85
2023/08/31 02:39:46;;;;;;;4.03;3.40;;;;;;;15.52;100.00;97661.69;4123828;28;20648;-85
2023/08/31 02:41:49;;;;;;;4.50;4.10;;;;;;;15.53;100.00;97658.09;4105791;28;20639;-85
2023/08/31 02:43:52;;;;;;;4.43;4.00;;;;;;;15.53;100.00;97655.47;4115886;28;20675;-85
2023/08/31 02:46:00;;;;;;;6.23;3.80;;;;;;;15.55;100.00;97656.16;4105411;28;20737;-85
2023/08/31 02:48:07;;;;;;;4.40;3.43;;;;;;;15.56;100.00;97657.81;4133576;28;20652;-85
2023/08/31 02:50:10;;;;;;;4.00;3.60;;;;;;;15.58;100.00;97666.38;4105524;28;20715;-84
2023/08/31 02:52:12;;;;;;;5.90;3.50;;;;;;;15.58;100.00;97671.63;4131163;28;20642;-85
2023/08/31 02:54:16;;;;;;;6.17;3.90;;;;;;;15.59;100.00;97668.84;4118360;28;20719;-88
2023/08/31 02:56:19;;;;;;;5.67;3.73;;;;;;;15.59;100.00;97671.47;4109152;28;20635;-89
2023/08/31 02:58:22;;;;;;;4.03;3.63;;;;;;;15.59;100.00;97663.59;4120654;28;20626;-87
2023/08/31 03:00:26;;;;;;;5.43;3.77;;;;;;;15.58;100.00;97661.94;4121796;28;20640;-88
2023/08/31 03:02:30;;;;;;;4.43;3.80;;;;;;;15.62;100.00;97668.56;4128484;28;20645;-88
2023/08/31 03:04:34;;;;;;;5.50;4.00;;;;;;;15.63;100.00;97662.31;4125465;28;20709;-88
2023/08/31 03:06:37;;;;;;;6.13;3.93;;;;;;;15.64;100.00;97674.50;4124470;28;20662;-88
2023/08/31 03:08:40;;;;;;;5.67;3.80;;;;;;;15.67;100.00;97673.38;4105783;28;20703;-87
2023/08/31 03:10:43;;;;;;;5.70;4.00;;;;;;;15.68;100.00;97673.25;4123312;28;20656;-88
2023/08/31 03:12:46;;;;;;;7.30;3.80;;;;;;;15.67;100.00;97674.19;4103638;28;20694;-89
2023/08/31 03:14:51;;;;;;;5.00;4.10;;;;;;;15.68;100.00;97673.25;4122890;28;21084;-88
2023/08/31 03:16:54;;;;;;;5.53;3.97;;;;;;;15.68;100.00;97672.38;4123601;28;21098;-88
2023/08/31 03:18:56;;;;;;;6.13;4.63;;;;;;;15.69;100.00;97667.00;4120390;28;21202;-89
2023/08/31 03:21:01;;;;;;;4.53;3.93;;;;;;;15.70;100.00;97673.09;4122271;28;21196;-88
2023/08/31 03:23:04;;;;;;;5.53;4.13;;;;;;;15.68;100.00;97675.88;4119982;28;21051;-88
2023/08/31 03:25:09;;;;;;;5.03;4.00;;;;;;;15.67;100.00;97668.94;4129039;28;20637;-88
2023/08/31 03:27:11;;;;;;;6.67;4.50;;;;;;;15.67;100.00;97682.09;4121839;28;20645;-88
2023/08/31 03:29:14;;;;;;;5.50;3.73;;;;;;;15.69;100.00;97684.56;4102169;28;20674;-87
2023/08/31 03:31:17;;;;;;;4.90;4.40;;;;;;;15.69;100.00;97687.22;4111209;28;20643;-87
2023/08/31 03:33:20;;;;;;;5.40;4.40;;;;;;;15.69;100.00;97677.50;4116681;28;20622;-88
2023/08/31 03:35:26;;;;;;;5.00;4.30;;;;;;;15.69;100.00;97688.03;4116632;28;20683;-88
2023/08/31 03:37:32;;;;;;;7.20;4.10;;;;;;;15.70;100.00;97689.69;4118373;28;21202;-88
2023/08/31 03:39:35;;;;;;;6.07;4.10;;;;;;;15.70;100.00;97700.22;4113689;28;20639;-88
2023/08/31 03:41:38;;;;;;;4.70;4.00;;;;;;;15.69;100.00;97695.91;4114571;28;20670;-88
2023/08/31 03:43:44;;;;;;;5.10;3.80;;;;;;;15.68;100.00;97702.16;4101169;28;20643;-88
2023/08/31 03:45:46;;;;;;;4.70;4.00;;;;;;;15.68;100.00;97701.31;4104784;28;20626;-87
2023/08/31 03:47:49;;;;;;;5.13;4.07;;;;;;;15.71;100.00;97708.91;4114362;28;22130;-88
2023/08/31 03:49:53;;;;;;;9.30;3.60;;;;;;;15.69;100.00;97701.16;4118472;28;20787;-89
2023/08/31 03:51:56;;;;;;;6.27;4.07;;;;;;;15.67;100.00;97697.88;4130912;28;20654;-88
2023/08/31 03:54:01;;;;;;;5.23;4.00;;;;;;;15.67;100.00;97697.88;4103378;28;20632;-88
2023/08/31 03:56:04;;;;;;;4.40;3.53;;;;;;;15.68;100.00;97701.31;4118446;28;21073;-88
2023/08/31 03:58:08;;;;;;;4.83;3.90;;;;;;;15.66;100.00;97698.81;4118138;28;20633;-88
2023/08/31 04:00:13;;;;;;;6.63;3.13;;;;;;;15.61;100.00;97695.81;4116727;28;20725;-88
2023/08/31 04:02:16;;;;;;;5.37;3.70;;;;;;;15.61;100.00;97703.72;4114497;28;20638;-88
2023/08/31 04:04:19;;;;;;;5.10;3.50;;;;;;;15.61;100.00;97708.16;4120614;28;20692;-88
2023/08/31 04:06:22;;;;;;;4.43;3.80;;;;;;;15.59;100.00;97710.06;4113336;28;20688;-87
2023/08/31 04:08:28;;;;;;;4.70;4.00;;;;;;;15.58;100.00;97709.25;4116766;28;21221;-88
2023/08/31 04:10:32;;;;;;;4.77;3.90;;;;;;;15.59;100.00;97708.28;4114379;28;20646;-90
2023/08/31 04:12:36;;;;;;;5.10;3.83;;;;;;;15.59;100.00;97705.66;4115413;28;21227;-88
2023/08/31 04:14:39;;;;;;;6.93;4.00;;;;;;;15.58;100.00;97711.88;4117006;28;20658;-88
2023/08/31 04:16:42;;;;;;;4.53;3.53;;;;;;;15.57;100.00;97709.41;4101195;28;21777;-88
2023/08/31 04:18:47;;;;;;;5.63;3.60;;;;;;;15.56;100.00;97721.72;4118825;28;20645;-88
2023/08/31 04:20:51;;;;;;;8.77;4.10;;;;;;;15.56;100.00;97721.72;4120531;28;20740;-86
2023/08/31 04:22:55;;;;;;;4.43;4.03;;;;;;;15.56;100.00;97720.91;4104930;28;20695;-88
2023/08/31 04:24:58;;;;;;;6.30;4.50;;;;;;;15.52;100.00;97719.53;4111981;28;20634;-88
2023/08/31 04:27:02;;;;;;;5.80;3.97;;;;;;;15.51;100.00;97727.56;4118895;28;20633;-88
2023/08/31 04:29:06;;;;;;;6.53;4.20;;;;;;;15.52;100.00;97726.59;4120940;28;20721;-88
2023/08/31 04:31:09;;;;;;;5.80;4.27;;;;;;;15.51;100.00;97720.50;4118496;28;20623;-88
2023/08/31 04:33:12;;;;;;;5.30;3.83;;;;;;;15.52;100.00;97723.97;4126646;28;20716;-89
2023/08/31 04:35:17;;;;;;;5.30;3.70;;;;;;;15.52;100.00;97726.59;4121984;28;20668;-88
2023/08/31 04:37:20;;;;;;;5.50;3.97;;;;;;;15.53;100.00;97731.72;4119036;28;20717;-88
2023/08/31 04:39:26;;;;;;;5.60;3.87;;;;;;;15.53;100.00;97726.44;4124644;28;20641;-87
2023/08/31 04:41:29;;;;;;;6.07;4.30;;;;;;;15.55;100.00;97732.38;4119168;28;20643;-89
2023/08/31 04:43:34;;;;;;;5.70;4.10;;;;;;;15.56;100.00;97734.06;4105730;28;20635;-88
2023/08/31 04:45:37;;;;;;;4.30;3.90;;;;;;;15.56;100.00;97734.88;4109730;28;20680;-88
2023/08/31 04:47:41;;;;;;;4.77;3.87;;;;;;;15.54;100.00;97730.72;4125461;28;20637;-88
2023/08/31 04:49:44;;;;;;;5.10;4.40;;;;;;;15.54;100.00;97728.09;4120690;28;20701;-88
2023/08/31 04:51:48;;;;;;;6.73;3.90;;;;;;;15.55;100.00;97727.94;4118239;28;20667;-88
2023/08/31 04:53:50;;;;;;;5.93;3.50;;;;;;;15.55;100.00;97739.44;4109160;28;20674;-88
2023/08/31 04:55:53;;;;;;;5.70;3.90;;;;;;;15.54;100.00;97741.22;4121603;28;21255;-88
2023/08/31 04:57:57;;;;;;;9.17;4.47;;;;;;;15.53;100.00;97744.00;4134043;28;20672;-89
2023/08/31 05:00:03;;;;;;;4.10;3.70;;;;;;;15.53;100.00;97744.00;4115945;28;20625;-87
2023/08/31 05:02:07;;;;;;;4.73;4.00;;;;;;;15.55;100.00;97760.47;4114660;28;20637;-88
2023/08/31 05:04:10;;;;;;;6.60;3.43;;;;;;;15.55;100.00;97749.97;4119249;28;20772;-87
2023/08/31 05:06:13;;;;;;;4.93;3.77;;;;;;;15.54;100.00;97756.19;4121634;28;20692;-88
2023/08/31 05:08:16;;;;;;;6.13;4.27;;;;;;;15.54;100.00;97757.00;4115100;28;21016;-87
2023/08/31 05:10:19;;;;;;;4.53;4.00;;;;;;;15.53;100.00;97759.78;4117113;28;20671;-88
2023/08/31 05:12:23;;;;;;;6.07;4.60;;;;;;;15.52;100.00;97760.75;4120963;28;20635;-88
2023/08/31 05:14:26;;;;;;;4.47;3.30;;;;;;;15.55;100.00;97766.56;4130941;28;20641;-85
2023/08/31 05:16:31;;;;;;;4.27;3.60;;;;;;;15.59;100.00;97767.91;4118253;28;20648;-85
2023/08/31 05:18:34;;;;;;;7.00;4.53;;;;;;;15.59;100.00;97766.13;4132326;28;21215;-85
2023/08/31 05:20:37;;;;;;;4.40;3.63;;;;;;;15.59;100.00;97760.88;4121780;28;20621;-85
2023/08/31 05:22:40;;;;;;;5.07;4.07;;;;;;;15.58;100.00;97772.34;4123201;28;20633;-85
2023/08/31 05:24:43;;;;;;;4.90;4.20;;;;;;;15.58;100.00;97759.19;4123403;28;21277;-85
2023/08/31 05:26:46;;;;;;;7.00;4.33;;;;;;;15.60;100.00;97765.13;4122928;28;20703;-85
2023/08/31 05:28:49;;;;;;;10.50;4.30;;;;;;;15.59;100.00;97765.28;4123763;28;20638;-85
2023/08/31 05:30:58;;;;;;;5.93;3.70;;;;;;;15.61;100.00;97768.63;4104750;28;20693;-85
2023/08/31 05:33:03;;;;;;;4.47;3.73;;;;;;;15.67;100.00;97771.50;4118585;28;20625;-85
2023/08/31 05:35:07;;;;;;;5.73;4.30;;;;;;;15.78;100.00;97781.81;4114874;28;21189;-85
2023/08/31 05:37:10;;;;;;;6.10;4.47;;;;;;;15.91;100.00;97787.59;4122827;28;21191;-85
2023/08/31 05:39:16;;;;;;;5.83;4.40;;;;;;;16.09;100.00;97786.69;4119818;28;20648;-85
2023/08/31 05:41:19;;;;;;;6.10;4.40;;;;;;;16.33;100.00;97794.09;4117024;28;20665;-86
2023/08/31 05:43:22;;;;;;;4.63;3.93;;;;;;;16.54;100.00;97804.19;4119058;28;20725;-85
2023/08/31 05:45:25;;;;;;;6.23;3.50;;;;;;;16.70;100.00;97808.78;4116177;28;20754;-85
2023/08/31 05:47:28;;;;;;;6.03;4.10;;;;;;;16.89;100.00;97809.50;4118656;28;20649;-85
2023/08/31 05:49:33;;;;;;;9.47;5.00;;;;;;;16.95;100.00;97813.34;4104415;28;20734;-85
2023/08/31 05:51:36;;;;;;;4.27;3.47;;;;;;;16.80;100.00;97797.22;4120528;28;20645;-85
2023/08/31 05:53:39;;;;;;;9.40;3.30;;;;;;;16.68;100.00;97798.41;4110208;28;20689;-85
2023/08/31 05:55:43;;;;;;;5.77;3.30;;;;;;;16.64;100.00;97802.34;4116169;28;20726;-86
2023/08/31 05:57:46;;;;;;;5.53;3.40;;;;;;;16.60;100.00;97805.41;4101991;28;21207;-85
2023/08/31 05:59:49;;;;;;;5.00;3.47;;;;;;;16.56;100.00;97804.03;4114332;28;21460;-85
2023/08/31 06:01:53;;;;;;;5.43;3.13;;;;;;;16.50;100.00;97802.81;4115115;28;21088;-86
2023/08/31 06:03:58;;;;;;;4.30;3.30;;;;;;;16.40;100.00;97800.41;4113469;28;20683;-86
2023/08/31 06:06:03;;;;;;;5.70;3.60;;;;;;;16.31;100.00;97806.53;4114245;28;20637;-86
2023/08/31 06:08:06;;;;;;;5.50;3.70;;;;;;;16.30;100.00;97804.91;4121331;28;20648;-86
2023/08/31 06:10:11;;;;;;;4.63;3.73;;;;;;;16.30;100.00;97799.66;4115523;28;20785;-86
2023/08/31 06:12:14;;;;;;;4.30;3.47;;;;;;;16.31;100.00;97807.41;4117023;28;20631;-85
2023/08/31 06:14:17;;;;;;;4.43;3.37;;;;;;;16.34;100.00;97804.47;4126993;28;20643;-86
2023/08/31 06:16:20;;;;;;;5.70;3.53;;;;;;;16.37;100.00;97812.03;4119858;28;21162;-86
2023/08/31 06:18:23;;;;;;;6.77;4.77;;;;;;;16.39;100.00;97819.78;4119157;28;21011;-86
2023/08/31 06:20:26;;;;;;;5.27;3.30;;;;;;;16.37;100.00;97806.78;4121893;28;20666;-85
2023/08/31 06:22:31;;;;;;;4.93;3.40;;;;;;;16.33;100.00;97815.97;4116026;28;20630;-85
2023/08/31 06:24:34;;;;;;;7.60;4.60;;;;;;;16.33;100.00;97820.41;4104504;28;20678;-87
2023/08/31 06:26:37;;;;;;;5.30;3.23;;;;;;;16.32;100.00;97818.75;4117149;28;20699;-89
2023/08/31 06:28:41;;;;;;;12.30;4.13;;;;;;;16.33;100.00;97825.69;4116157;28;21292;-88
2023/08/31 06:30:46;;;;;;;3.43;3.13;;;;;;;16.33;100.00;97828.31;4122272;28;21480;-88
2023/08/31 06:32:50;;;;;;;5.23;3.50;;;;;;;16.34;100.00;97833.44;4104739;28;21209;-88
2023/08/31 06:34:52;;;;;;;6.47;3.27;;;;;;;16.34;100.00;97833.44;4114525;28;20690;-88
2023/08/31 06:36:57;;;;;;;4.40;3.20;;;;;;;16.37;100.00;97840.19;4113425;28;20662;-87
2023/08/31 06:39:02;;;;;;;6.37;3.00;;;;;;;16.33;100.00;97842.28;4118761;28;20630;-88
2023/08/31 06:41:06;;;;;;;3.90;3.33;;;;;;;16.34;100.00;97832.56;4114725;28;20628;-88
2023/08/31 06:43:09;;;;;;;4.37;3.37;;;;;;;16.37;100.00;97843.63;4117177;28;20641;-88
2023/08/31 06:45:12;;;;;;;6.50;3.13;;;;;;;16.43;100.00;97834.34;4133996;28;20639;-88
2023/08/31 06:47:17;;;;;;;8.07;3.50;;;;;;;16.46;100.00;97837.50;4119004;28;20684;-88
2023/08/31 06:49:20;;;;;;;4.37;3.10;;;;;;;16.44;100.00;97838.63;4123108;28;20630;-89
2023/08/31 06:51:24;;;;;;;4.03;2.80;;;;;;;16.42;100.00;97848.47;4103752;28;20694;-88
2023/08/31 06:53:27;;;;;;;6.00;3.47;;;;;;;16.36;100.00;97844.63;4119956;28;20630;-88
2023/08/31 06:55:33;;;;;;;4.20;3.00;;;;;;;16.41;100.00;97852.09;4118086;28;20652;-88
2023/08/31 06:57:37;;;;;;;5.90;3.83;;;;;;;16.45;100.00;97858.69;4124173;28;20635;-87
2023/08/31 06:59:40;;;;;;;5.17;3.30;;;;;;;16.54;100.00;97856.84;4119153;28;20642;-87
2023/08/31 07:01:43;;;;;;;5.13;2.93;;;;;;;16.62;100.00;97856.94;4115439;28;20631;-87
2023/08/31 07:03:47;;;;;;;4.37;2.97;;;;;;;16.77;100.00;97867.81;4118344;28;20647;-89
2023/08/31 07:05:50;;;;;;;4.43;3.07;;;;;;;17.00;99.99;97870.72;4116987;28;20678;-88
2023/08/31 07:07:54;;;;;;;6.33;3.50;;;;;;;17.19;100.00;97867.09;4116251;28;20690;-88
2023/08/31 07:09:57;;;;;;;10.07;3.10;;;;;;;17.32;98.00;97880.75;4123389;28;20637;-88
2023/08/31 07:12:02;;;;;;;7.73;3.00;;;;;;;17.50;99.24;97870.06;4124002;28;21153;-89
2023/08/31 07:14:05;;;;;;;3.50;2.77;;;;;;;17.85;98.80;97875.28;4116181;28;20741;-88
2023/08/31 07:16:08;;;;;;;4.47;2.70;;;;;;;18.19;96.59;97870.88;4102602;28;21423;-89
2023/08/31 07:18:12;;;;;;;5.33;4.20;;;;;;;18.57;99.29;97887.09;4115067;28;20630;-88
2023/08/31 07:20:15;;;;;;;4.47;3.37;;;;;;;18.77;96.65;97884.03;4114794;28;20641;-88
2023/08/31 07:22:18;;;;;;;4.47;2.70;;;;;;;18.72;95.36;97883.69;4116112;28;20627;-89
2023/08/31 07:24:22;;;;;;;4.00;2.90;;;;;;;18.47;92.69;97881.91;4112761;28;20679;-88
2023/08/31 07:26:25;;;;;;;4.03;2.70;;;;;;;18.23;90.49;97877.53;4127122;28;20647;-87
2023/08/31 07:28:29;;;;;;;4.50;2.53;;;;;;;18.16;93.82;97872.03;4129916;28;20634;-87
2023/08/31 07:30:33;;;;;;;6.80;2.53;;;;;;;18.17;93.47;97880.78;4119860;28;20634;-89
2023/08/31 07:32:35;;;;;;;4.07;2.70;;;;;;;18.18;93.60;97882.44;4119518;28;20734;-92
2023/08/31 07:34:40;;;;;;;5.77;3.00;;;;;;;18.14;93.96;97881.91;4118734;28;21182;-89
2023/08/31 07:36:44;;;;;;;6.90;2.73;;;;;;;18.15;92.57;97885.41;4121491;28;20635;-90
2023/08/31 07:38:47;;;;;;;5.73;3.20;;;;;;;18.14;92.64;97889.84;4106931;28;20731;-90
2023/08/31 07:40:51;;;;;;;4.70;2.33;;;;;;;18.13;92.01;97888.19;4120352;28;21030;-89
2023/08/31 07:42:54;;;;;;;5.40;2.67;;;;;;;18.13;92.30;97900.56;4116472;28;20636;-89
2023/08/31 07:44:59;;;;;;;4.40;2.27;;;;;;;18.12;93.22;97898.88;4120854;28;20631;-91
2023/08/31 07:47:02;;;;;;;4.73;3.13;;;;;;;18.12;92.88;97904.97;4116755;28;20720;-90
2023/08/31 07:49:06;;;;;;;4.70;2.73;;;;;;;18.12;93.28;97906.81;4109898;28;20742;-92
2023/08/31 07:51:09;;;;;;;3.93;2.40;;;;;;;18.10;91.37;97911.38;4121602;28;21269;-89
2023/08/31 07:53:14;;;;;;;3.30;2.40;;;;;;;18.13;92.25;97921.66;4121359;28;20628;-96
2023/08/31 07:55:18;;;;;;;6.20;2.53;;;;;;;18.17;92.24;97912.47;4120991;28;20659;-93
2023/08/31 07:57:21;;;;;;;3.60;2.60;;;;;;;18.33;94.24;97916.03;4114333;28;20628;-92
2023/08/31 07:59:25;;;;;;;6.60;2.80;;;;;;;18.60;94.35;97915.84;4114754;28;20742;-90
2023/08/31 08:01:29;;;;;;;4.70;3.30;;;;;;;18.86;92.07;97920.06;4119948;28;21231;-91
2023/08/31 08:03:33;;;;;;;4.07;2.67;;;;;;;19.09;93.21;97918.53;4115982;28;20645;-90
2023/08/31 08:05:37;;;;;;;5.17;2.70;;;;;;;19.15;90.57;97915.25;4108798;28;20628;-92
2023/08/31 08:07:42;;;;;;;3.70;2.60;;;;;;;19.31;89.28;97916.09;4127019;28;20726;-91
2023/08/31 08:09:45;;;;;;;3.47;2.40;;;;;;;19.35;88.77;97919.25;4130863;28;20628;-89
2023/08/31 08:11:48;;;;;;;4.33;2.70;;;;;;;19.51;88.77;97920.09;4118583;28;21762;-91
2023/08/31 08:13:51;;;;;;;5.03;2.53;;;;;;;19.72;89.64;97920.44;4120989;28;21033;-88
2023/08/31 08:15:55;;;;;;;3.90;2.27;;;;;;;19.80;87.57;97912.50;4119382;28;20641;-91
2023/08/31 08:17:59;;;;;;;4.73;2.30;;;;;;;19.93;89.91;97916.34;4106580;28;20637;-84
2023/08/31 08:20:03;;;;;;;6.97;2.60;;;;;;;19.96;87.60;97918.66;4112036;28;20644;-84
2023/08/31 08:22:07;;;;;;;4.33;3.40;;;;;;;19.93;85.95;97913.69;4105232;28;21280;-89
2023/08/31 08:24:10;;;;;;;9.20;2.37;;;;;;;19.89;85.22;97918.50;4121110;28;20673;-85
2023/08/31 08:26:13;;;;;;;7.60;2.40;;;;;;;19.89;85.04;97905.25;4116842;28;21071;-87
2023/08/31 08:28:16;;;;;;;6.13;2.83;;;;;;;19.93;84.05;97905.75;4118347;28;20698;-85
2023/08/31 08:30:19;;;;;;;3.43;2.30;;;;;;;19.93;83.85;97908.41;4111868;28;20699;-84
2023/08/31 08:32:23;;;;;;;4.87;2.43;;;;;;;20.00;83.99;97918.16;4116845;28;20693;-86
2023/08/31 08:34:28;;;;;;;3.47;2.40;;;;;;;20.03;82.68;97917.00;4124466;28;21535;-85
2023/08/31 08:36:32;;;;;;;3.87;2.13;;;;;;;20.00;84.66;97918.16;4129038;28;20632;-85
2023/08/31 08:38:35;;;;;;;6.57;3.57;;;;;;;19.83;83.18;97911.19;4120411;28;20635;-85
2023/08/31 08:40:38;;;;;;;7.33;2.87;;;;;;;19.71;85.04;97922.28;4115003;28;20744;-84
2023/08/31 08:42:41;;;;;;;16.70;10.00;;;;;;;19.74;85.89;97919.31;4117167;28;20621;-84
2023/08/31 08:44:45;;;;;;;4.77;2.23;;;;;;;19.83;82.91;97920.13;4120518;28;20641;-85
2023/08/31 08:46:49;;;;;;;3.73;2.00;;;;;;;19.81;83.74;97912.34;4112133;28;21091;-83
2023/08/31 08:48:53;;;;;;;6.53;2.87;;;;;;;19.82;83.19;97924.59;4118731;28;20643;-84
2023/08/31 08:50:58;;;;;;;5.30;2.60;;;;;;;19.76;84.99;97929.72;4110241;28;20667;-84
2023/08/31 08:53:02;;;;;;;3.70;2.20;;;;;;;19.74;84.72;97931.69;4114773;28;20752;-84
2023/08/31 08:55:06;;;;;;;3.90;2.17;;;;;;;19.76;84.44;97927.91;4099382;28;20868;-86
2023/08/31 08:57:09;;;;;;;7.10;2.50;;;;;;;19.81;85.22;97933.50;4119455;28;20313;-86
2023/08/31 08:59:13;;;;;;;4.00;2.03;;;;;;;19.85;84.10;97927.72;4122616;28;20731;-87
2023/08/31 09:01:17;;;;;;;2.43;1.90;;;;;;;19.86;83.93;97931.25;4115947;28;21231;-86
2023/08/31 09:03:21;;;;;;;8.20;2.33;;;;;;;19.85;79.83;97929.56;4114293;28;21151;-86
2023/08/31 09:05:24;;;;;;;3.73;2.20;;;;;;;19.85;82.20;97930.38;4112718;28;20684;-86
2023/08/31 09:07:36;;;;;;;5.43;2.30;;;;;;;19.89;83.53;97928.25;4102393;28;20737;-86
2023/08/31 09:09:53;;;;;;;4.07;2.40;;;;;;;19.89;82.72;97928.25;4118534;28;20653;-86
2023/08/31 09:11:56;;;;;;;2.60;1.63;;;;;;;19.88;83.84;97930.06;4116545;28;20633;-86
2023/08/31 09:13:59;;;;;;;3.97;2.30;;;;;;;19.92;83.47;97936.72;4115948;28;20687;-86
2023/08/31 09:16:03;;;;;;;4.60;2.13;;;;;;;19.92;80.65;97931.41;4120949;28;20656;-86
2023/08/31 09:18:06;;;;;;;4.93;2.30;;;;;;;19.92;78.86;97933.22;4117702;28;20723;-86
2023/08/31 09:20:10;;;;;;;3.60;2.03;;;;;;;20.00;79.59;97935.88;4121866;28;20646;-86
2023/08/31 09:22:14;;;;;;;3.03;2.10;;;;;;;19.91;81.52;97937.69;4118488;28;20632;-86
2023/08/31 09:24:19;;;;;;;4.23;2.27;;;;;;;19.87;78.55;97932.88;4123267;28;20636;-86
2023/08/31 09:26:22;;;;;;;3.27;2.10;;;;;;;19.76;77.42;97940.31;4120666;28;20645;-86
2023/08/31 09:28:27;;;;;;;4.93;1.83;;;;;;;19.65;76.36;97938.81;4116828;28;20676;-86
2023/08/31 09:30:35;;;;;;;3.03;2.10;;;;;;;19.55;76.65;97932.84;4124524;28;20664;-86
2023/08/31 09:32:38;;;;;;;6.23;3.83;;;;;;;19.47;76.37;97934.66;4119782;28;20673;-86
2023/08/31 09:34:41;;;;;;;7.07;2.60;;;;;;;19.37;75.13;97935.81;4130142;28;20646;-86
2023/08/31 09:36:45;;;;;;;4.50;2.53;;;;;;;19.33;77.11;97926.53;4120312;28;20641;-86
2023/08/31 09:38:48;;;;;;;5.67;2.77;;;;;;;19.29;77.31;97928.69;4121202;28;21233;-86
2023/08/31 09:40:53;;;;;;;4.53;2.53;;;;;;;19.37;77.36;97932.16;4124953;28;20641;-86
2023/08/31 09:42:55;;;;;;;3.60;2.00;;;;;;;19.72;76.56;97941.63;4118168;28;20685;-86
2023/08/31 09:44:58;;;;;;;6.90;2.70;;;;;;;20.05;78.83;97936.19;4114389;28;20682;-86
2023/08/31 09:47:03;;;;;;;3.30;2.30;;;;;;;20.30;78.11;97936.00;4121386;28;20667;-86